TimeEDT,TemperatureF,Dew PointF,Humidity,Sea Level PressureIn,VisibilityMPH,Wind Direction,Wind SpeedMPH,Gust SpeedMPH,PrecipitationIn,Events,Conditions,WindDirDegrees,DateUTC
12:54 AM,44.1,28.9,55,30.16,10.0,SSW,6.9,-,N/A,,Scattered Clouds,210,2013-03-31 04:54:00
1:54 AM,42.1,28.9,60,30.15,10.0,Calm,Calm,-,N/A,,Scattered Clouds,0,2013-03-31 05:54:00
2:54 AM,41.0,30.9,67,30.14,10.0,SW,3.5,-,N/A,,Scattered Clouds,220,2013-03-31 06:54:00
3:54 AM,39.9,32.0,73,30.13,10.0,Calm,Calm,-,N/A,,Mostly Cloudy,0,2013-03-31 07:54:00
4:54 AM,37.9,33.1,83,30.12,10.0,SE,3.5,-,N/A,,Overcast,130,2013-03-31 08:54:00
5:54 AM,37.0,33.1,86,30.11,10.0,Calm,Calm,-,N/A,,Overcast,0,2013-03-31 09:54:00
6:54 AM,37.0,34.0,89,30.09,10.0,ESE,4.6,-,N/A,,Overcast,110,2013-03-31 10:54:00
7:54 AM,41.0,37.0,86,30.09,10.0,Calm,Calm,-,N/A,,Overcast,0,2013-03-31 11:54:00
8:54 AM,45.0,36.0,71,30.09,10.0,Calm,Calm,-,N/A,,Overcast,0,2013-03-31 12:54:00
9:54 AM,51.1,32.0,48,30.06,10.0,SSE,6.9,-,N/A,,Overcast,160,2013-03-31 13:54:00
10:54 AM,55.0,27.0,34,30.03,10.0,SSE,11.5,21.9,N/A,,Overcast,160,2013-03-31 14:54:00
11:54 AM,55.9,28.9,36,30.00,10.0,SSE,13.8,-,N/A,,Overcast,150,2013-03-31 15:54:00
12:54 PM,57.0,32.0,39,29.96,10.0,South,13.8,-,N/A,,Overcast,170,2013-03-31 16:54:00
1:54 PM,57.9,34.0,41,29.91,10.0,SSE,15.0,26.5,N/A,,Overcast,160,2013-03-31 17:54:00
2:54 PM,57.0,37.0,47,29.89,10.0,South,18.4,27.6,0.00,Rain,Light Rain,170,2013-03-31 18:54:00
3:14 PM,53.6,42.8,67,29.88,7.0,South,9.2,26.5,0.00,Rain,Light Rain,170,2013-03-31 19:14:00
3:21 PM,51.8,42.8,71,29.88,5.0,South,6.9,-,0.01,Rain,Light Rain,170,2013-03-31 19:21:00
3:43 PM,50.0,44.6,82,29.88,4.0,South,9.2,-,0.06,Rain,Light Rain,170,2013-03-31 19:43:00
3:54 PM,50.0,46.0,86,29.86,4.0,ESE,6.9,-,0.08,Rain,Light Rain,120,2013-03-31 19:54:00
4:26 PM,48.2,46.4,93,29.84,5.0,East,8.1,-,0.06,Rain,Light Rain,100,2013-03-31 20:26:00
4:54 PM,48.0,46.0,93,29.82,6.0,ESE,9.2,-,0.06,Rain,Light Rain,120,2013-03-31 20:54:00
5:15 PM,48.2,46.4,93,29.81,7.0,East,8.1,-,0.00,Rain,Light Rain,100,2013-03-31 21:15:00
5:41 PM,48.2,46.4,93,29.80,5.0,ESE,9.2,-,0.01,Rain,Light Rain,110,2013-03-31 21:41:00
5:54 PM,48.9,46.0,90,29.79,5.0,ESE,8.1,-,0.01,Rain,Light Rain,110,2013-03-31 21:54:00
5:58 PM,48.2,46.4,93,29.79,2.0,East,8.1,-,0.00,Rain,Light Rain,100,2013-03-31 21:58:00
6:47 PM,48.2,46.4,93,29.75,2.0,ESE,8.1,-,0.03,Rain,Light Rain,110,2013-03-31 22:47:00
6:54 PM,48.9,46.9,93,29.75,2.0,ESE,8.1,-,0.03,,Overcast,110,2013-03-31 22:54:00
7:09 PM,48.2,46.4,93,29.74,5.0,SE,5.8,-,0.00,Rain,Light Rain,130,2013-03-31 23:09:00
7:29 PM,48.2,46.4,93,29.74,6.0,SE,5.8,-,0.00,Rain,Light Rain,140,2013-03-31 23:29:00
7:48 PM,48.2,46.4,93,29.73,4.0,Calm,Calm,-,0.00,Rain,Light Rain,0,2013-03-31 23:48:00
7:54 PM,48.9,46.9,93,29.73,4.0,Calm,Calm,-,0.00,Rain,Light Rain,0,2013-03-31 23:54:00
8:05 PM,48.2,46.4,93,29.74,3.0,Calm,Calm,-,0.00,Rain,Light Rain,0,2013-04-01 00:05:00
8:54 PM,50.0,48.0,93,29.73,3.0,SW,6.9,-,0.00,Rain,Light Rain,230,2013-04-01 00:54:00
9:22 PM,50.0,48.2,94,29.74,2.0,WSW,11.5,-,0.00,Rain,Light Rain,240,2013-04-01 01:22:00
9:54 PM,48.9,48.0,97,29.75,2.0,WSW,13.8,-,0.00,Rain,Light Rain,240,2013-04-01 01:54:00
10:12 PM,48.2,48.2,100,29.74,5.0,SW,11.5,-,0.00,,Overcast,230,2013-04-01 02:12:00
10:37 PM,50.0,48.2,94,29.75,5.0,WSW,12.7,-,0.00,,Overcast,240,2013-04-01 02:37:00
10:54 PM,50.0,48.0,93,29.75,5.0,WSW,11.5,-,0.00,,Overcast,240,2013-04-01 02:54:00
11:29 PM,50.0,46.4,87,29.75,5.0,WSW,10.4,-,N/A,,Overcast,240,2013-04-01 03:29:00
11:54 PM,50.0,46.9,89,29.75,6.0,WSW,11.5,-,N/A,,Overcast,240,2013-04-01 03:54:00